If you wish to contribute or participate in the discussions about articles you are invited to join SKYbrary as a registered user

 Actions

Smithers Airport

From SKYbrary Wiki

CYYD
Airport
ICAO: CYYD – IATA: YYD
Summary
Name Smithers Airport
Region North America
Territory Canada CA.gif
Location Smithers, British Columbia
Serving Smithers
Elevation 523.037 m
1,716 ft
1,716 ft523.037 m
Coordinates 54° 49' 28.74" N, 127° 11' 0.45" W
Runways
Designator Length Width Surface ROPS
15/33 1524 m5,000 ft
46 m150.919 ft
ASP yes/yes


METAR
Observation CYYD 211611Z 00000KT 10SM SCT004 OVC040 M07/M08 A2948 RMK ST4SC4 SLP012
Station Smithers, B. C.
Date/Time 21 January 2020 16:11:00
Wind direction
Wind speed 00 kts
Lowest cloud amount scattered clouds
Temperature
Dew point
Humidity 92%
QNH hPa
Weather condition n/a

Smithers Airport

ICAO: CYYD IATA: YYD

Description

Smithers Airport, is located 2 nm3,704 m
3.704 km
12,152.231 ft
north of Smithers, British Columbia, Canada.

Climatology

Humid Continental climate (Köppen climate classification Dfb) - Variable weather patterns and a large seasonal temperature variance. Summers are often warm and humid with frequent thunderstorms and winters can be very cold with frequent snowfall and persistent snow cover.

Maps

Terrain

Loading map...

Airport Layout

Loading map...


Accidents & Serious Incidents at or in vicinity of CYYD

None on SKYbrary